Time;durP1;ratioP1;P1;durP2;ratioP2;P2;SDS_P1;SDS_P2;PMS_P1;PMS_P2;Temp;Humidity;BMP_temperature;BMP_pressure;BME280_temperature;BME280_humidity;BME280_pressure;Samples;Min_cycle;Max_cycle;Signal;HPM_P1;HPM_P2
2022/09/01 00:02:26;;;;;;;2.78;0.98;;;21.90;48.50;;;;;;5055608;28;20343;-79
2022/09/01 00:04:57;;;;;;;1.95;1.10;;;21.90;48.50;;;;;;5053726;28;20225;-79
2022/09/01 00:07:30;;;;;;;1.52;1.20;;;21.90;49.20;;;;;;5064518;28;20028;-79
2022/09/01 00:09:58;;;;;;;1.65;1.00;;;21.80;48.50;;;;;;5073686;28;20028;-79
2022/09/01 00:12:24;;;;;;;1.40;0.90;;;21.80;48.50;;;;;;5058628;28;20016;-79
2022/09/01 00:14:50;;;;;;;1.80;1.00;;;21.80;48.50;;;;;;5064654;28;20024;-79
2022/09/01 00:17:16;;;;;;;2.13;1.00;;;21.70;48.50;;;;;;5070617;28;20080;-79
2022/09/01 00:19:41;;;;;;;2.73;1.00;;;21.70;48.60;;;;;;5043727;28;20406;-79
2022/09/01 00:22:07;;;;;;;1.42;0.90;;;21.60;48.50;;;;;;5066548;28;20107;-80
2022/09/01 00:24:34;;;;;;;1.45;0.90;;;21.60;48.50;;;;;;5057852;28;20031;-79
2022/09/01 00:26:59;;;;;;;2.00;1.00;;;21.50;48.60;;;;;;5068827;28;20745;-79
2022/09/01 00:29:25;;;;;;;2.37;0.90;;;21.50;48.60;;;;;;5057223;28;20466;-80
2022/09/01 00:31:51;;;;;;;1.63;1.03;;;21.50;48.60;;;;;;5057609;28;20539;-79
2022/09/01 00:34:17;;;;;;;1.20;0.80;;;21.40;48.60;;;;;;5057040;28;20069;-79
2022/09/01 00:36:43;;;;;;;1.33;0.90;;;21.40;48.80;;;;;;5063299;28;20788;-79
2022/09/01 00:39:09;;;;;;;1.50;0.90;;;21.40;48.80;;;;;;5073867;28;20115;-79
2022/09/01 00:41:38;;;;;;;2.03;0.90;;;21.30;48.70;;;;;;5070987;28;20245;-80
2022/09/01 00:44:07;;;;;;;2.17;1.08;;;21.30;48.90;;;;;;5057477;28;20028;-79
2022/09/01 00:46:36;;;;;;;1.27;0.90;;;21.30;49.10;;;;;;5063886;28;20642;-79
2022/09/01 00:49:17;;;;;;;1.10;1.00;;;21.20;49.00;;;;;;5074122;28;20498;-80
2022/09/01 00:51:51;;;;;;;1.13;0.90;;;21.10;49.50;;;;;;5061885;28;20059;-79
2022/09/01 00:54:23;;;;;;;1.23;0.90;;;21.00;49.10;;;;;;5064372;28;20087;-79
2022/09/01 00:56:50;;;;;;;1.02;0.90;;;21.00;49.40;;;;;;5059242;28;20677;-79
2022/09/01 00:59:18;;;;;;;2.55;1.00;;;20.90;49.20;;;;;;5060351;28;20578;-79
2022/09/01 01:01:44;;;;;;;1.08;0.88;;;20.90;49.30;;;;;;5058373;28;20721;-78
2022/09/01 01:04:13;;;;;;;0.97;0.80;;;20.80;49.20;;;;;;5064545;28;20034;-78
2022/09/01 01:07:01;;;;;;;2.10;0.82;;;20.80;49.30;;;;;;5034865;28;21125;-78
2022/09/01 01:09:32;;;;;;;1.30;0.90;;;20.70;49.90;;;;;;5055385;28;20043;-78
2022/09/01 01:11:59;;;;;;;1.38;0.90;;;20.70;49.50;;;;;;5070112;28;20500;-78
2022/09/01 01:14:31;;;;;;;1.50;0.73;;;20.60;49.50;;;;;;5060678;28;20311;-78
2022/09/01 01:16:58;;;;;;;1.52;0.90;;;20.50;50.10;;;;;;5061022;28;20059;-78
2022/09/01 01:23:04;;;;;;;1.02;0.80;;;20.40;50.30;;;;;;5071462;28;20452;-78
2022/09/01 01:25:34;;;;;;;1.15;0.80;;;20.30;50.40;;;;;;5055630;28;20484;-78
2022/09/01 01:28:08;;;;;;;1.20;0.80;;;20.20;50.10;;;;;;5054220;28;20017;-78
2022/09/01 01:30:35;;;;;;;1.88;0.80;;;20.20;50.50;;;;;;5026132;28;20160;-78
2022/09/01 01:33:02;;;;;;;1.73;0.80;;;20.10;50.20;;;;;;5062682;28;20115;-78
2022/09/01 01:35:28;;;;;;;1.10;0.90;;;20.10;50.30;;;;;;5055480;28;20044;-78
2022/09/01 01:37:54;;;;;;;1.67;0.82;;;20.10;50.40;;;;;;5065969;28;20032;-78
2022/09/01 01:40:21;;;;;;;1.57;0.90;;;20.10;50.60;;;;;;5055902;28;20782;-78
2022/09/01 01:42:50;;;;;;;1.25;0.95;;;20.00;50.70;;;;;;5060530;28;20204;-78
2022/09/01 01:45:19;;;;;;;2.15;0.93;;;20.00;50.90;;;;;;5055398;28;20024;-78
2022/09/01 01:47:51;;;;;;;1.08;0.98;;;20.00;51.10;;;;;;5046546;28;20020;-78
2022/09/01 01:50:22;;;;;;;1.53;0.90;;;20.00;50.90;;;;;;5058924;28;20418;-78
2022/09/01 01:52:48;;;;;;;1.15;0.88;;;19.90;50.90;;;;;;5058233;28;20039;-78
2022/09/01 01:55:18;;;;;;;1.77;0.93;;;19.90;50.90;;;;;;5061448;28;20036;-78
2022/09/01 01:57:48;;;;;;;1.45;0.90;;;19.90;51.00;;;;;;5066575;28;20508;-78
2022/09/01 02:00:21;;;;;;;1.65;0.85;;;19.90;51.10;;;;;;5060028;28;20466;-78
2022/09/01 02:02:52;;;;;;;1.30;0.90;;;19.90;51.40;;;;;;5037745;28;20600;-78
2022/09/01 02:05:25;;;;;;;3.10;1.00;;;19.90;51.30;;;;;;5052576;28;20464;-78
2022/09/01 02:07:58;;;;;;;1.42;1.00;;;19.90;51.50;;;;;;5049824;28;20611;-78
2022/09/01 02:10:30;;;;;;;0.93;0.77;;;19.90;51.50;;;;;;5065689;28;20083;-78
2022/09/01 02:13:02;;;;;;;2.03;1.00;;;19.80;51.50;;;;;;5055001;28;20551;-78
2022/09/01 02:15:28;;;;;;;1.30;1.00;;;19.80;51.40;;;;;;5068928;28;20496;-78
2022/09/01 02:17:58;;;;;;;1.42;0.88;;;19.80;51.40;;;;;;5056788;28;20395;-78
2022/09/01 02:20:28;;;;;;;1.35;0.85;;;19.90;51.50;;;;;;5049183;28;20068;-78
2022/09/01 02:22:54;;;;;;;1.83;0.90;;;19.80;51.60;;;;;;5046640;28;20142;-78
2022/09/01 02:25:22;;;;;;;1.50;1.00;;;19.80;51.60;;;;;;5073302;28;20029;-78
2022/09/01 02:27:54;;;;;;;1.20;0.70;;;19.80;51.70;;;;;;5061433;28;20046;-78
2022/09/01 02:30:25;;;;;;;3.10;0.88;;;19.80;51.70;;;;;;5074170;28;20062;-78
2022/09/01 02:32:50;;;;;;;1.73;0.93;;;19.90;51.80;;;;;;5056713;28;20373;-78
2022/09/01 02:35:17;;;;;;;1.23;0.85;;;19.90;51.80;;;;;;5066049;28;20504;-78
2022/09/01 02:37:48;;;;;;;1.63;0.95;;;19.90;51.70;;;;;;5054014;28;20039;-78
2022/09/01 02:40:14;;;;;;;2.03;1.00;;;19.90;51.80;;;;;;5073236;28;20022;-78
2022/09/01 02:42:40;;;;;;;1.90;0.80;;;19.80;51.70;;;;;;5060784;28;20032;-78
2022/09/01 02:45:10;;;;;;;1.98;1.00;;;19.90;51.70;;;;;;5063848;28;20059;-78
2022/09/01 02:47:40;;;;;;;1.23;1.00;;;19.80;51.70;;;;;;5054782;28;20097;-78
2022/09/01 02:50:12;;;;;;;2.30;0.90;;;19.80;51.60;;;;;;5060290;28;20062;-78
2022/09/01 02:52:39;;;;;;;1.42;0.90;;;19.80;51.60;;;;;;5062476;28;20569;-78
2022/09/01 02:55:07;;;;;;;1.70;0.80;;;19.70;51.60;;;;;;5039851;28;20333;-78
2022/09/01 02:57:34;;;;;;;1.35;0.70;;;19.70;51.70;;;;;;5048812;28;20040;-78
2022/09/01 03:00:00;;;;;;;1.50;1.00;;;19.70;51.60;;;;;;5073345;28;20051;-78
2022/09/01 03:02:27;;;;;;;0.83;0.80;;;19.60;51.60;;;;;;5051115;28;20052;-78
2022/09/01 03:04:56;;;;;;;1.00;0.90;;;19.60;51.60;;;;;;5067293;28;20088;-78
2022/09/01 03:07:22;;;;;;;1.48;0.90;;;19.50;51.70;;;;;;5060138;28;20020;-78
2022/09/01 03:09:49;;;;;;;1.20;0.80;;;19.50;51.70;;;;;;5048649;28;20794;-78
2022/09/01 03:12:15;;;;;;;1.30;1.00;;;19.40;51.70;;;;;;5071686;28;20035;-78
2022/09/01 03:14:40;;;;;;;2.10;0.90;;;19.40;51.80;;;;;;5059112;28;20625;-78
2022/09/01 03:17:06;;;;;;;3.33;1.00;;;19.30;51.80;;;;;;5072086;28;20366;-78
2022/09/01 03:19:43;;;;;;;1.20;0.88;;;19.30;51.80;;;;;;5052210;28;20035;-78
2022/09/01 03:22:09;;;;;;;1.87;0.83;;;19.20;51.90;;;;;;5066387;28;20243;-78
2022/09/01 03:24:35;;;;;;;2.38;0.98;;;19.20;51.90;;;;;;5050117;28;20422;-78
2022/09/01 03:27:00;;;;;;;1.25;0.90;;;19.20;52.00;;;;;;5044607;28;20206;-79
2022/09/01 03:29:26;;;;;;;2.08;1.10;;;19.10;52.00;;;;;;5064881;28;20587;-78
2022/09/01 03:31:52;;;;;;;1.67;0.90;;;19.10;52.10;;;;;;5056142;28;20024;-78
2022/09/01 03:34:22;;;;;;;1.48;0.90;;;19.00;52.10;;;;;;5069599;28;20512;-78
2022/09/01 03:36:53;;;;;;;2.10;0.95;;;19.00;52.20;;;;;;5054497;28;20079;-78
2022/09/01 03:39:19;;;;;;;1.33;1.00;;;18.90;52.10;;;;;;5070148;28;20578;-78
2022/09/01 03:41:45;;;;;;;2.08;1.10;;;18.90;52.30;;;;;;5053328;28;20150;-78
2022/09/01 03:44:15;;;;;;;1.15;0.90;;;18.80;52.20;;;;;;5064300;28;20020;-78
2022/09/01 03:46:42;;;;;;;1.10;1.00;;;18.80;52.50;;;;;;5058458;28;20008;-79
2022/09/01 03:49:11;;;;;;;2.13;1.00;;;18.80;52.40;;;;;;5058955;28;20069;-79
2022/09/01 03:51:37;;;;;;;1.52;1.08;;;18.70;52.40;;;;;;5053516;28;20330;-78
2022/09/01 03:54:03;;;;;;;2.70;1.20;;;18.70;52.40;;;;;;5066511;28;20118;-78
2022/09/01 03:56:29;;;;;;;2.08;1.17;;;18.60;52.40;;;;;;5049860;28;20028;-78
2022/09/01 03:58:57;;;;;;;2.23;1.00;;;18.60;52.50;;;;;;5064635;28;20051;-78
2022/09/01 04:01:25;;;;;;;1.67;0.98;;;18.60;52.70;;;;;;5057751;28;20075;-78
2022/09/01 04:03:51;;;;;;;2.70;1.02;;;18.50;52.70;;;;;;5051430;28;20024;-78
2022/09/01 04:06:19;;;;;;;1.83;1.00;;;18.50;53.30;;;;;;5069183;28;20024;-78
2022/09/01 04:08:46;;;;;;;1.30;1.00;;;18.40;52.70;;;;;;5051418;28;20239;-78
2022/09/01 04:11:18;;;;;;;2.87;1.00;;;18.40;53.50;;;;;;5070954;28;20028;-78
2022/09/01 04:13:46;;;;;;;2.92;1.10;;;18.30;53.10;;;;;;5034032;28;20272;-78
2022/09/01 04:19:18;;;;;;;2.05;1.02;;;18.20;53.60;;;;;;5064841;28;20020;-78
2022/09/01 04:21:51;;;;;;;3.60;1.10;;;18.20;53.00;;;;;;5051331;28;20728;-78
2022/09/01 04:24:17;;;;;;;2.17;1.10;;;18.20;53.10;;;;;;5063602;28;20040;-78
2022/09/01 04:26:45;;;;;;;1.27;1.00;;;18.10;53.10;;;;;;5046114;28;20020;-78
2022/09/01 04:29:11;;;;;;;2.40;1.10;;;18.00;53.10;;;;;;5071883;28;20019;-78
2022/09/01 04:31:39;;;;;;;2.55;1.20;;;18.00;53.20;;;;;;5047336;28;20226;-79
2022/09/01 04:34:12;;;;;;;3.17;1.20;;;18.00;53.30;;;;;;5060109;28;20157;-78
2022/09/01 04:36:42;;;;;;;3.07;1.10;;;17.90;53.30;;;;;;5064487;28;20021;-78
2022/09/01 04:39:10;;;;;;;1.88;1.20;;;17.90;53.40;;;;;;5048495;28;20040;-78
2022/09/01 04:41:40;;;;;;;2.72;1.20;;;17.90;53.50;;;;;;5060740;28;20020;-78
2022/09/01 04:44:06;;;;;;;1.65;1.00;;;17.80;53.60;;;;;;5049581;28;20020;-78
2022/09/01 04:46:35;;;;;;;2.45;1.08;;;17.80;53.60;;;;;;5054586;28;20028;-78
2022/09/01 04:49:08;;;;;;;3.87;1.10;;;17.70;53.70;;;;;;5049383;28;20051;-78
2022/09/01 04:51:37;;;;;;;4.22;1.30;;;17.70;53.70;;;;;;5063465;28;20258;-78
2022/09/01 04:54:06;;;;;;;2.63;1.30;;;17.70;53.70;;;;;;5028745;28;20016;-78
2022/09/01 04:56:34;;;;;;;3.05;1.20;;;17.60;53.80;;;;;;5044652;28;20249;-78
2022/09/01 04:59:02;;;;;;;3.10;1.40;;;17.60;53.90;;;;;;5052430;28;20063;-78
2022/09/01 05:01:28;;;;;;;2.80;1.23;;;17.60;53.90;;;;;;5054464;28;20239;-78
2022/09/01 05:04:00;;;;;;;1.80;1.13;;;17.60;54.00;;;;;;5032565;28;20024;-78
2022/09/01 05:06:28;;;;;;;2.35;1.30;;;17.50;54.00;;;;;;5063786;28;20385;-78
2022/09/01 05:08:58;;;;;;;3.03;1.50;;;17.50;54.10;;;;;;5045795;28;20120;-78
2022/09/01 05:11:26;;;;;;;3.13;1.50;;;17.50;54.10;;;;;;5028085;28;20343;-78
2022/09/01 05:13:56;;;;;;;5.05;1.42;;;17.40;54.10;;;;;;5045624;28;20016;-78
2022/09/01 05:16:24;;;;;;;3.17;1.40;;;17.40;54.30;;;;;;5053543;28;20829;-78
2022/09/01 05:18:55;;;;;;;2.90;1.48;;;17.40;54.50;;;;;;5057786;28;20047;-78
2022/09/01 05:21:27;;;;;;;3.77;1.40;;;17.40;54.60;;;;;;5066416;28;20220;-78
2022/09/01 05:23:55;;;;;;;2.28;1.30;;;17.30;54.50;;;;;;5052344;28;20024;-78
2022/09/01 05:26:24;;;;;;;3.90;1.70;;;17.30;54.60;;;;;;5031315;28;20048;-78
2022/09/01 05:28:53;;;;;;;3.97;1.58;;;17.30;54.70;;;;;;5048651;28;20032;-78
2022/09/01 05:31:20;;;;;;;3.67;1.80;;;17.30;54.90;;;;;;5052920;28;20512;-78
2022/09/01 05:33:49;;;;;;;3.23;1.50;;;17.30;54.90;;;;;;5057428;28;20174;-78
2022/09/01 05:36:21;;;;;;;3.55;1.58;;;17.30;55.00;;;;;;5054049;28;20028;-78
2022/09/01 05:38:49;;;;;;;4.53;1.77;;;17.30;55.40;;;;;;5065139;28;20427;-79
2022/09/01 05:41:16;;;;;;;3.05;1.80;;;17.20;55.10;;;;;;5052057;28;20028;-78
2022/09/01 05:43:45;;;;;;;3.80;1.90;;;17.30;55.20;;;;;;5038904;28;20032;-78
2022/09/01 05:46:14;;;;;;;3.80;1.90;;;17.30;55.20;;;;;;5073485;28;20496;-78
2022/09/01 05:48:41;;;;;;;5.95;2.10;;;17.30;56.00;;;;;;5070748;28;20477;-78
2022/09/01 05:51:08;;;;;;;3.63;2.03;;;17.30;55.40;;;;;;5065795;28;20499;-78
2022/09/01 05:53:34;;;;;;;4.88;2.10;;;17.30;55.50;;;;;;5047107;28;20467;-78
2022/09/01 05:56:06;;;;;;;4.88;2.20;;;17.40;55.60;;;;;;5023236;28;20531;-78
2022/09/01 05:58:37;;;;;;;5.87;2.07;;;17.40;55.60;;;;;;5052976;28;20968;-78
2022/09/01 06:01:04;;;;;;;4.45;2.10;;;17.40;55.70;;;;;;5025731;28;20058;-78
2022/09/01 06:03:31;;;;;;;3.63;2.00;;;17.40;55.80;;;;;;5066920;28;20588;-78
2022/09/01 06:06:11;;;;;;;4.80;2.10;;;17.50;55.90;;;;;;5065222;28;20129;-78
2022/09/01 06:08:37;;;;;;;4.95;2.30;;;17.50;56.30;;;;;;5083127;28;20017;-78
2022/09/01 06:11:11;;;;;;;4.67;2.10;;;17.60;56.20;;;;;;5018564;28;20561;-78
2022/09/01 06:13:40;;;;;;;4.18;2.28;;;17.60;56.20;;;;;;5065436;28;20492;-78
2022/09/01 06:16:07;;;;;;;4.43;2.25;;;17.60;56.40;;;;;;5049023;28;20484;-78
2022/09/01 06:18:34;;;;;;;7.95;2.42;;;17.70;56.40;;;;;;5070198;28;20024;-78
2022/09/01 06:21:03;;;;;;;6.00;2.40;;;17.70;56.50;;;;;;5065352;28;20436;-78
2022/09/01 06:23:28;;;;;;;6.33;2.47;;;17.80;56.80;;;;;;5070669;28;20517;-78
2022/09/01 06:25:54;;;;;;;6.80;2.33;;;17.80;56.60;;;;;;5040039;28;20265;-78
2022/09/01 06:28:22;;;;;;;6.13;2.70;;;17.80;56.70;;;;;;5046792;28;20111;-78
2022/09/01 06:30:49;;;;;;;5.20;2.60;;;17.90;56.70;;;;;;5041683;28;20697;-78
2022/09/01 06:33:16;;;;;;;6.10;2.53;;;18.00;56.70;;;;;;5053200;28;20475;-78
2022/09/01 06:35:45;;;;;;;5.68;2.80;;;18.00;56.80;;;;;;5024492;28;20527;-78
2022/09/01 06:38:13;;;;;;;4.68;2.63;;;18.10;56.90;;;;;;5052060;28;20028;-78
2022/09/01 06:40:40;;;;;;;6.03;2.40;;;18.20;57.00;;;;;;5053730;28;20073;-78
2022/09/01 06:43:07;;;;;;;6.05;2.58;;;18.30;57.00;;;;;;5063310;28;20023;-79
2022/09/01 06:45:39;;;;;;;5.22;2.80;;;18.30;56.90;;;;;;5058397;28;20028;-78
2022/09/01 06:48:05;;;;;;;5.30;2.85;;;18.40;57.20;;;;;;5058985;28;20051;-78
2022/09/01 06:50:31;;;;;;;5.87;2.93;;;18.50;56.90;;;;;;5063003;28;20048;-79
2022/09/01 06:53:07;;;;;;;3.70;2.63;;;18.60;57.00;;;;;;5053973;28;20156;-78
2022/09/01 06:55:36;;;;;;;5.80;2.95;;;18.70;56.90;;;;;;5065604;28;20028;-78
2022/09/01 06:58:04;;;;;;;5.32;2.90;;;18.70;56.80;;;;;;5042077;28;20028;-78
2022/09/01 07:00:30;;;;;;;4.13;2.80;;;18.80;56.80;;;;;;5063238;28;20153;-78
2022/09/01 07:02:57;;;;;;;4.75;2.88;;;18.90;57.00;;;;;;5049295;28;20853;-78
2022/09/01 07:05:24;;;;;;;5.05;3.30;;;19.00;57.10;;;;;;5075246;28;20024;-78
2022/09/01 07:07:54;;;;;;;4.15;2.60;;;19.10;57.20;;;;;;5073238;28;20344;-78
2022/09/01 07:10:27;;;;;;;5.75;2.83;;;19.20;57.00;;;;;;5077183;28;20099;-78
2022/09/01 07:12:55;;;;;;;5.53;2.80;;;19.40;57.50;;;;;;5048989;28;20448;-78
2022/09/01 07:15:24;;;;;;;4.15;2.42;;;19.50;57.70;;;;;;5021438;28;20072;-78
2022/09/01 07:17:55;;;;;;;5.47;2.78;;;19.70;58.20;;;;;;5060002;28;20051;-78
2022/09/01 07:20:24;;;;;;;4.75;2.88;;;20.00;58.30;;;;;;5065401;28;20370;-78
2022/09/01 07:22:51;;;;;;;5.63;2.70;;;20.30;58.10;;;;;;5065785;28;20027;-78
2022/09/01 07:25:19;;;;;;;4.40;2.67;;;20.60;57.70;;;;;;5057377;28;20058;-78
2022/09/01 07:27:48;;;;;;;5.80;2.50;;;20.90;57.30;;;;;;5078970;28;20160;-78
2022/09/01 07:30:14;;;;;;;3.92;2.67;;;21.10;57.00;;;;;;5028789;28;20035;-78
2022/09/01 07:32:43;;;;;;;4.70;2.70;;;21.20;56.80;;;;;;5069363;28;20723;-78
2022/09/01 07:35:11;;;;;;;4.50;2.67;;;21.50;56.80;;;;;;5049155;28;20475;-78
2022/09/01 07:37:37;;;;;;;4.87;2.40;;;21.60;56.70;;;;;;5072705;28;20105;-78
2022/09/01 07:40:05;;;;;;;4.30;2.55;;;21.90;56.80;;;;;;5043283;28;20028;-78
2022/09/01 07:42:31;;;;;;;4.85;2.92;;;22.20;56.50;;;;;;5066994;28;20221;-78
2022/09/01 07:44:57;;;;;;;4.65;2.70;;;22.40;56.40;;;;;;5062558;28;20031;-79
2022/09/01 07:47:23;;;;;;;5.43;2.73;;;22.70;56.80;;;;;;5049734;28;20548;-78
2022/09/01 07:49:48;;;;;;;5.13;2.53;;;23.00;57.30;;;;;;5048152;28;20028;-79
2022/09/01 07:52:14;;;;;;;4.20;2.33;;;23.40;57.60;;;;;;5075365;28;20373;-78
2022/09/01 07:54:41;;;;;;;5.72;2.70;;;23.80;57.50;;;;;;5049103;28;20703;-78
2022/09/01 07:57:06;;;;;;;6.18;2.50;;;24.20;57.30;;;;;;5078631;28;20081;-78
2022/09/01 07:59:34;;;;;;;3.17;2.37;;;24.70;57.20;;;;;;5072738;28;20039;-80
2022/09/01 08:02:04;;;;;;;4.55;2.22;;;25.20;56.80;;;;;;5073133;28;20024;-79
2022/09/01 08:04:30;;;;;;;3.28;2.10;;;25.60;56.20;;;;;;5040272;28;21091;-79
2022/09/01 08:06:56;;;;;;;2.53;1.90;;;26.10;55.80;;;;;;5072511;28;20098;-79
2022/09/01 08:09:22;;;;;;;2.90;1.90;;;26.50;55.30;;;;;;5052060;28;20020;-79
2022/09/01 08:11:48;;;;;;;3.45;1.90;;;26.90;54.90;;;;;;5065450;28;20024;-79
2022/09/01 08:14:14;;;;;;;2.38;1.67;;;27.30;54.50;;;;;;5050663;28;20028;-79
2022/09/01 08:16:40;;;;;;;3.30;1.60;;;27.60;54.20;;;;;;5061119;28;20160;-79
2022/09/01 08:19:06;;;;;;;2.70;1.83;;;28.00;53.90;;;;;;5073119;28;20024;-79
2022/09/01 08:21:32;;;;;;;2.55;1.63;;;28.40;53.90;;;;;;5048388;28;20036;-79
2022/09/01 08:23:58;;;;;;;2.30;1.40;;;28.80;53.40;;;;;;5056922;28;20017;-79
2022/09/01 08:26:25;;;;;;;2.60;1.50;;;29.20;52.70;;;;;;5075153;28;20446;-79
2022/09/01 08:28:52;;;;;;;2.72;1.45;;;29.60;51.90;;;;;;5059783;28;20111;-79
2022/09/01 08:31:20;;;;;;;2.60;1.40;;;29.90;51.40;;;;;;5075100;28;20257;-79
2022/09/01 08:33:47;;;;;;;1.90;1.70;;;30.20;50.80;;;;;;5062256;28;20032;-78
2022/09/01 08:36:15;;;;;;;1.80;1.60;;;30.60;50.20;;;;;;5034522;28;20028;-78
2022/09/01 08:38:41;;;;;;;2.45;2.05;;;30.90;49.80;;;;;;5063164;28;20136;-79
2022/09/01 08:41:40;;;;;;;1.85;1.60;;;31.30;49.30;;;;;;5079871;28;20060;-79
2022/09/01 08:44:39;;;;;;;1.77;1.50;;;31.60;47.10;;;;;;5051980;28;20085;-79
2022/09/01 08:47:11;;;;;;;1.63;1.53;;;32.10;46.80;;;;;;5072104;28;20028;-79
2022/09/01 08:49:39;;;;;;;1.70;1.60;;;32.40;47.30;;;;;;5061976;28;20201;-79
2022/09/01 08:52:16;;;;;;;2.78;1.80;;;32.70;47.10;;;;;;5079076;28;20087;-79
2022/09/01 08:55:10;;;;;;;2.10;1.90;;;33.00;45.60;;;;;;5048838;28;20709;-79
2022/09/01 08:57:39;;;;;;;1.67;1.58;;;33.40;44.60;;;;;;5062990;28;20489;-79
2022/09/01 09:00:10;;;;;;;2.80;1.80;;;33.60;45.00;;;;;;5077227;28;20036;-80
2022/09/01 09:03:10;;;;;;;1.83;1.73;;;33.90;44.60;;;;;;5060773;28;20492;-79
2022/09/01 09:06:00;;;;;;;2.00;1.80;;;34.20;42.60;;;;;;5070556;28;20587;-79
2022/09/01 09:08:52;;;;;;;1.65;1.33;;;34.40;42.60;;;;;;5056485;28;20033;-79
2022/09/01 09:11:29;;;;;;;2.30;1.67;;;34.70;42.10;;;;;;5056257;28;20497;-79
2022/09/01 09:14:04;;;;;;;1.80;1.70;;;34.90;41.90;;;;;;5045348;28;20127;-80
2022/09/01 09:16:46;;;;;;;2.10;1.50;;;35.10;40.90;;;;;;5058024;28;20670;-80
2022/09/01 09:19:27;;;;;;;1.75;1.65;;;35.30;40.90;;;;;;5057298;28;20103;-77
2022/09/01 09:21:55;;;;;;;1.50;1.40;;;35.50;39.00;;;;;;5067298;28;20093;-77
2022/09/01 09:24:51;;;;;;;2.05;1.85;;;35.60;40.40;;;;;;5060297;28;20028;-79
2022/09/01 09:27:26;;;;;;;1.97;1.77;;;35.80;38.30;;;;;;5047868;28;20073;-79
2022/09/01 09:29:54;;;;;;;2.00;1.80;;;36.00;37.80;;;;;;5063935;28;20047;-79
2022/09/01 09:32:22;;;;;;;2.60;1.88;;;36.20;39.00;;;;;;5072441;28;20089;-79
2022/09/01 09:34:49;;;;;;;1.58;1.48;;;36.30;38.70;;;;;;5057514;28;20273;-80
2022/09/01 09:37:35;;;;;;;2.80;1.73;;;36.40;38.40;;;;;;5068327;28;20028;-79
2022/09/01 09:40:13;;;;;;;2.10;1.83;;;36.60;36.10;;;;;;5047619;28;20032;-78
2022/09/01 09:42:43;;;;;;;1.92;1.83;;;36.70;36.80;;;;;;5051519;28;20245;-77
2022/09/01 09:45:20;;;;;;;1.80;1.70;;;36.80;36.10;;;;;;5073412;28;20031;-77
2022/09/01 09:47:46;;;;;;;3.85;1.75;;;36.90;34.60;;;;;;5072480;28;20122;-77
2022/09/01 09:50:34;;;;;;;1.73;1.60;;;36.90;35.70;;;;;;5076753;28;20024;-77
2022/09/01 09:53:31;;;;;;;1.90;1.80;;;37.00;34.20;;;;;;5069676;28;20029;-76
2022/09/01 09:56:15;;;;;;;1.50;1.40;;;37.10;34.10;;;;;;5029432;28;20468;-77
2022/09/01 09:58:42;;;;;;;1.63;1.45;;;37.30;34.40;;;;;;5071352;28;20188;-76
2022/09/01 10:01:27;;;;;;;2.20;1.40;;;37.50;35.10;;;;;;5074542;28;20527;-77
2022/09/01 10:03:56;;;;;;;1.58;1.48;;;37.60;33.70;;;;;;5076624;28;20044;-77
2022/09/01 10:06:36;;;;;;;1.70;1.60;;;37.80;33.50;;;;;;5042806;28;20439;-77
2022/09/01 10:09:31;;;;;;;2.28;1.80;;;37.90;31.00;;;;;;5051813;28;20020;-77
2022/09/01 10:11:58;;;;;;;1.88;1.77;;;38.00;32.50;;;;;;5041934;28;20024;-77
2022/09/01 10:14:28;;;;;;;2.28;1.80;;;38.10;32.60;;;;;;5062905;28;20455;-77
2022/09/01 10:17:00;;;;;;;2.13;2.03;;;38.30;32.20;;;;;;5077718;28;20059;-78
2022/09/01 10:19:29;;;;;;;1.63;1.53;;;38.40;31.30;;;;;;5073179;28;20269;-77
2022/09/01 10:21:55;;;;;;;2.38;1.95;;;38.50;31.00;;;;;;5076905;28;20321;-77
2022/09/01 10:24:24;;;;;;;1.60;1.50;;;38.50;31.00;;;;;;5049546;28;20032;-77
2022/09/01 10:26:55;;;;;;;2.10;1.98;;;38.60;31.10;;;;;;5055823;28;20036;-77
2022/09/01 10:29:31;;;;;;;1.92;1.67;;;38.70;30.30;;;;;;5064299;28;20077;-77
2022/09/01 10:31:59;;;;;;;2.33;2.13;;;38.80;29.90;;;;;;5076799;28;20028;-77
2022/09/01 10:34:32;;;;;;;2.40;2.28;;;39.00;30.50;;;;;;5076010;28;20723;-78
2022/09/01 10:36:58;;;;;;;2.13;2.00;;;39.20;29.80;;;;;;5081161;28;20416;-76
2022/09/01 10:39:24;;;;;;;2.45;2.25;;;39.30;29.80;;;;;;5053600;28;20034;-76
2022/09/01 10:42:05;;;;;;;2.42;2.22;;;39.40;29.50;;;;;;5061540;28;20104;-77
2022/09/01 10:44:54;;;;;;;2.17;2.07;;;39.50;28.50;;;;;;5042907;28;20079;-77
2022/09/01 10:47:32;;;;;;;2.42;2.22;;;39.70;28.90;;;;;;5057604;28;20012;-77
2022/09/01 10:50:23;;;;;;;2.35;2.15;;;39.80;28.50;;;;;;5048859;28;20035;-76
2022/09/01 10:52:59;;;;;;;2.20;2.00;;;40.00;28.60;;;;;;5067253;28;20131;-77
2022/09/01 10:55:31;;;;;;;3.10;1.70;;;40.10;27.80;;;;;;5073241;28;20020;-77
2022/09/01 10:58:15;;;;;;;1.70;1.60;;;40.00;27.70;;;;;;5038513;28;20245;-77
2022/09/01 11:00:46;;;;;;;2.33;1.90;;;40.00;28.10;;;;;;5066123;28;20051;-77
2022/09/01 11:03:12;;;;;;;2.80;1.75;;;40.10;27.90;;;;;;5069728;28;20027;-77
2022/09/01 11:05:53;;;;;;;2.03;1.93;;;40.10;27.90;;;;;;5026403;28;20043;-77
2022/09/01 11:08:26;;;;;;;2.30;2.05;;;40.20;26.90;;;;;;5056970;28;20085;-77
2022/09/01 11:11:06;;;;;;;3.10;2.20;;;40.30;27.10;;;;;;5052532;28;20104;-76
2022/09/01 11:13:48;;;;;;;1.83;1.73;;;40.40;26.90;;;;;;5051579;28;20245;-76
2022/09/01 11:16:28;;;;;;;2.15;2.05;;;40.50;26.60;;;;;;5053306;28;20241;-76
2022/09/01 11:19:14;;;;;;;2.00;1.80;;;40.60;26.70;;;;;;5073713;28;20585;-77
2022/09/01 11:21:39;;;;;;;1.90;1.80;;;40.60;27.20;;;;;;5044795;28;20035;-77
2022/09/01 11:24:37;;;;;;;2.17;1.65;;;40.70;27.00;;;;;;5063622;28;20036;-76
2022/09/01 11:27:03;;;;;;;1.88;1.77;;;40.70;26.30;;;;;;5030815;28;20055;-76
2022/09/01 11:29:55;;;;;;;2.30;2.10;;;40.80;26.90;;;;;;5039445;28;20129;-76
2022/09/01 11:32:26;;;;;;;2.33;2.10;;;40.90;26.40;;;;;;5058197;28;20041;-76
2022/09/01 11:34:56;;;;;;;2.15;1.95;;;40.90;26.40;;;;;;5050887;28;20520;-76
2022/09/01 11:37:23;;;;;;;2.20;2.05;;;41.00;26.60;;;;;;5047239;28;20224;-76
2022/09/01 11:39:57;;;;;;;1.73;1.60;;;41.10;26.40;;;;;;5045666;28;20039;-77
2022/09/01 11:42:26;;;;;;;2.10;1.90;;;41.10;26.00;;;;;;5056494;28;20106;-76
2022/09/01 11:45:03;;;;;;;2.78;1.80;;;41.20;26.10;;;;;;5038362;28;20485;-76
2022/09/01 11:47:35;;;;;;;1.60;1.50;;;41.10;26.30;;;;;;5066940;28;20271;-77
2022/09/01 11:50:05;;;;;;;2.10;1.90;;;41.00;25.70;;;;;;5059201;28;20550;-76
2022/09/01 11:52:34;;;;;;;1.90;1.80;;;40.90;25.60;;;;;;5046412;28;20024;-76
2022/09/01 11:55:03;;;;;;;2.17;1.90;;;40.90;25.70;;;;;;5052525;28;20660;-76
2022/09/01 11:57:29;;;;;;;3.58;1.85;;;40.90;25.70;;;;;;5067076;28;20504;-77
2022/09/01 11:59:57;;;;;;;1.75;1.65;;;40.80;25.30;;;;;;5054183;28;20272;-76
2022/09/01 12:02:41;;;;;;;1.70;1.60;;;40.50;25.00;;;;;;5071898;28;20052;-76
2022/09/01 12:05:25;;;;;;;1.83;1.73;;;40.20;24.80;;;;;;5051858;28;20819;-76
2022/09/01 12:07:51;;;;;;;1.63;1.52;;;40.00;25.30;;;;;;5046841;28;20651;-77
2022/09/01 12:10:28;;;;;;;1.63;1.40;;;39.90;25.60;;;;;;5055883;28;20497;-76
2022/09/01 12:13:04;;;;;;;1.90;1.80;;;39.90;25.50;;;;;;5054721;28;20036;-77
2022/09/01 12:15:30;;;;;;;1.90;1.80;;;39.90;25.70;;;;;;5027727;28;20487;-76
2022/09/01 12:18:19;;;;;;;1.90;1.60;;;39.90;26.60;;;;;;5056750;28;20089;-76
2022/09/01 12:20:47;;;;;;;2.08;1.88;;;40.10;25.60;;;;;;5054542;28;20483;-76
2022/09/01 12:23:23;;;;;;;2.03;1.92;;;40.30;25.80;;;;;;5045817;28;20222;-76
2022/09/01 12:25:49;;;;;;;1.50;1.38;;;40.30;25.00;;;;;;5065092;28;20066;-77
2022/09/01 12:28:15;;;;;;;2.57;1.50;;;40.30;25.20;;;;;;5058839;28;20024;-76
2022/09/01 12:30:42;;;;;;;1.48;1.30;;;40.00;24.70;;;;;;5049123;28;20089;-76
2022/09/01 12:33:11;;;;;;;1.60;1.50;;;39.60;24.50;;;;;;5074718;28;20476;-76
2022/09/01 12:35:37;;;;;;;2.35;1.40;;;39.20;24.60;;;;;;5057124;28;20460;-76
2022/09/01 12:38:24;;;;;;;1.47;1.37;;;39.00;25.10;;;;;;5049731;28;20047;-76
2022/09/01 12:40:53;;;;;;;1.40;1.30;;;38.90;25.20;;;;;;5058760;28;20510;-77
2022/09/01 12:43:29;;;;;;;2.03;1.83;;;38.80;25.60;;;;;;5054236;28;20031;-76
2022/09/01 12:45:58;;;;;;;2.03;1.83;;;38.90;25.30;;;;;;5052897;28;20540;-77
2022/09/01 12:48:30;;;;;;;2.10;2.00;;;38.90;26.00;;;;;;5039611;28;20696;-77
2022/09/01 12:51:01;;;;;;;1.60;1.50;;;39.10;25.80;;;;;;5059378;28;20489;-76
2022/09/01 12:53:30;;;;;;;1.60;1.50;;;39.30;26.00;;;;;;5055718;28;20257;-76
2022/09/01 12:56:01;;;;;;;5.22;1.70;;;39.60;26.10;;;;;;5057799;28;20548;-76
2022/09/01 12:58:29;;;;;;;1.95;1.70;;;39.70;25.70;;;;;;5054988;28;20625;-76
2022/09/01 13:01:06;;;;;;;2.30;2.05;;;39.80;25.50;;;;;;5072871;28;20565;-76
2022/09/01 13:03:33;;;;;;;1.83;1.70;;;39.90;25.20;;;;;;5059284;28;20297;-76
2022/09/01 13:06:00;;;;;;;1.75;1.40;;;39.90;25.20;;;;;;5044963;28;20431;-76
2022/09/01 13:08:32;;;;;;;3.85;1.67;;;39.90;25.10;;;;;;5046193;28;20180;-76
2022/09/01 13:11:09;;;;;;;2.00;1.90;;;39.90;25.00;;;;;;5069093;28;20050;-77
2022/09/01 13:13:35;;;;;;;2.13;1.92;;;39.90;25.00;;;;;;5045346;28;20058;-76